Time;durP1;ratioP1;P1;durP2;ratioP2;P2;SDS_P1;SDS_P2;PMS_P1;PMS_P2;Temp;Humidity;BMP_temperature;BMP_pressure;BME280_temperature;BME280_humidity;BME280_pressure;Samples;Min_cycle;Max_cycle;Signal;HPM_P1;HPM_P2
2023/10/17 00:02:51;;;;;;;5.82;1.50;;;;;;;;;;5037868;28;20139;-53
2023/10/17 00:05:19;;;;;;;2.85;1.08;;;;;;;;;;5041507;28;20075;-53
2023/10/17 00:07:48;;;;;;;2.85;1.17;;;;;;;;;;5037255;28;20045;-54
2023/10/17 00:10:18;;;;;;;3.42;1.10;;;;;;;;;;5038889;28;20123;-51
2023/10/17 00:12:46;;;;;;;4.25;1.40;;;;;;;;;;5041120;28;20539;-56
2023/10/17 00:15:27;;;;;;;4.50;1.88;;;;;;;;;;5036717;28;20111;-54
2023/10/17 00:18:00;;;;;;;3.15;1.40;;;;;;;;;;5028369;28;20088;-55
2023/10/17 00:20:32;;;;;;;6.53;1.73;;;;;;;;;;5039459;28;20491;-53
2023/10/17 00:22:58;;;;;;;3.88;1.95;;;;;;;;;;5041281;28;20049;-52
2023/10/17 00:25:26;;;;;;;4.38;1.50;;;;;;;;;;5039645;28;20041;-54
2023/10/17 00:27:52;;;;;;;7.13;2.40;;;;;;;;;;5026113;28;20041;-53
2023/10/17 00:30:19;;;;;;;4.47;1.58;;;;;;;;;;5040350;28;20074;-53
2023/10/17 00:32:49;;;;;;;4.82;1.50;;;;;;;;;;5042052;28;20041;-54
2023/10/17 00:35:18;;;;;;;3.80;1.48;;;;;;;;;;5049725;28;20050;-53
2023/10/17 00:37:53;;;;;;;5.88;1.52;;;;;;;;;;5044469;28;20059;-54
2023/10/17 00:40:37;;;;;;;5.95;1.52;;;;;;;;;;5036061;28;20112;-54
2023/10/17 00:43:04;;;;;;;4.15;1.52;;;;;;;;;;5040981;28;20049;-54
2023/10/17 00:45:32;;;;;;;7.53;1.52;;;;;;;;;;5043695;28;20076;-53
2023/10/17 00:48:00;;;;;;;5.90;1.67;;;;;;;;;;5041821;28;20045;-54
2023/10/17 00:50:28;;;;;;;6.80;1.60;;;;;;;;;;5041458;28;20060;-54
2023/10/17 00:52:56;;;;;;;5.38;1.45;;;;;;;;;;5040166;28;20072;-53
2023/10/17 00:55:26;;;;;;;5.80;1.98;;;;;;;;;;5044821;28;20103;-53
2023/10/17 00:57:53;;;;;;;5.35;1.20;;;;;;;;;;5037940;28;20063;-52
2023/10/17 01:00:39;;;;;;;7.45;1.88;;;;;;;;;;5043833;28;20045;-54
2023/10/17 01:03:10;;;;;;;5.07;1.35;;;;;;;;;;5037419;28;20045;-54
2023/10/17 01:05:57;;;;;;;10.38;1.83;;;;;;;;;;5036826;28;20049;-53
2023/10/17 01:08:46;;;;;;;6.53;1.60;;;;;;;;;;5029258;28;20099;-53
2023/10/17 01:11:20;;;;;;;2.67;1.60;;;;;;;;;;5036102;28;20396;-52
2023/10/17 01:13:53;;;;;;;4.30;1.67;;;;;;;;;;5032651;28;20645;-53
2023/10/17 01:16:20;;;;;;;9.32;1.83;;;;;;;;;;5034885;28;20107;-53
2023/10/17 01:18:47;;;;;;;6.28;1.30;;;;;;;;;;5035128;28;21257;-52
2023/10/17 01:21:21;;;;;;;5.13;1.40;;;;;;;;;;5037166;28;20091;-54
2023/10/17 01:23:49;;;;;;;2.90;1.52;;;;;;;;;;5033596;28;20408;-50
2023/10/17 01:26:20;;;;;;;4.38;1.45;;;;;;;;;;5037334;28;20063;-52
2023/10/17 01:28:48;;;;;;;3.83;1.30;;;;;;;;;;5039903;28;20111;-51
2023/10/17 01:31:16;;;;;;;3.13;1.30;;;;;;;;;;5037058;28;20076;-53
2023/10/17 01:33:46;;;;;;;8.63;1.70;;;;;;;;;;5045448;28;20060;-52
2023/10/17 01:36:16;;;;;;;4.75;1.65;;;;;;;;;;5040809;28;20049;-54
2023/10/17 01:38:43;;;;;;;5.32;1.20;;;;;;;;;;5043178;28;20049;-55
2023/10/17 01:41:10;;;;;;;3.72;1.25;;;;;;;;;;5032225;28;20037;-55
2023/10/17 01:43:40;;;;;;;1.90;1.10;;;;;;;;;;5034836;28;20103;-53
2023/10/17 01:46:09;;;;;;;5.03;1.45;;;;;;;;;;5043038;28;20053;-53
2023/10/17 01:48:35;;;;;;;6.45;1.40;;;;;;;;;;5038868;28;20053;-53
2023/10/17 01:51:05;;;;;;;8.68;1.48;;;;;;;;;;5036696;28;20439;-51
2023/10/17 01:53:35;;;;;;;4.93;1.42;;;;;;;;;;5032983;28;20507;-51
2023/10/17 01:56:13;;;;;;;5.90;1.70;;;;;;;;;;5043836;28;20482;-53
2023/10/17 01:58:50;;;;;;;6.30;1.92;;;;;;;;;;5041487;28;20055;-52
2023/10/17 02:01:17;;;;;;;5.07;1.63;;;;;;;;;;5042025;28;20390;-52
2023/10/17 02:03:44;;;;;;;2.20;1.40;;;;;;;;;;5039828;28;20049;-53
2023/10/17 02:06:14;;;;;;;3.13;1.10;;;;;;;;;;5044319;28;20507;-53
2023/10/17 02:08:44;;;;;;;3.65;1.80;;;;;;;;;;5045470;28;20898;-52
2023/10/17 02:11:23;;;;;;;4.18;1.20;;;;;;;;;;5042351;28;20040;-52
2023/10/17 02:13:56;;;;;;;3.65;1.10;;;;;;;;;;5040814;28;20095;-52
2023/10/17 02:16:23;;;;;;;1.95;0.80;;;;;;;;;;5046561;28;20459;-52
2023/10/17 02:18:49;;;;;;;3.85;1.35;;;;;;;;;;5046658;28;20049;-53
2023/10/17 02:21:16;;;;;;;5.55;1.75;;;;;;;;;;5039035;28;20151;-51
2023/10/17 02:23:49;;;;;;;4.13;1.45;;;;;;;;;;5029964;28;20582;-53
2023/10/17 02:26:21;;;;;;;4.47;1.65;;;;;;;;;;5040847;28;20479;-52
2023/10/17 02:28:53;;;;;;;3.08;1.17;;;;;;;;;;5040346;28;20499;-53
2023/10/17 02:31:27;;;;;;;4.53;1.42;;;;;;;;;;5032420;28;20055;-54
2023/10/17 02:33:54;;;;;;;5.38;2.30;;;;;;;;;;5034236;28;20041;-52
2023/10/17 02:36:21;;;;;;;3.70;1.20;;;;;;;;;;5034651;28;20056;-51
2023/10/17 02:38:47;;;;;;;1.42;1.00;;;;;;;;;;5019731;28;20045;-53
2023/10/17 02:41:28;;;;;;;4.47;1.33;;;;;;;;;;5035342;28;20756;-52
2023/10/17 02:43:55;;;;;;;3.28;1.48;;;;;;;;;;5038144;28;20110;-51
2023/10/17 02:46:26;;;;;;;7.22;1.67;;;;;;;;;;5040414;28;20041;-53
2023/10/17 02:48:54;;;;;;;3.72;1.20;;;;;;;;;;5036425;28;20987;-53
2023/10/17 02:53:53;;;;;;;3.03;1.08;;;;;;;;;;5046041;28;20131;-51
2023/10/17 02:56:20;;;;;;;5.97;1.70;;;;;;;;;;5040647;28;20402;-52
2023/10/17 02:58:51;;;;;;;4.20;0.90;;;;;;;;;;5040698;28;20618;-53
2023/10/17 03:01:18;;;;;;;5.60;1.73;;;;;;;;;;5032883;28;20049;-52
2023/10/17 03:03:51;;;;;;;3.97;1.45;;;;;;;;;;5039420;28;20049;-53
2023/10/17 03:06:18;;;;;;;3.83;1.15;;;;;;;;;;5034816;28;20080;-54
2023/10/17 03:08:51;;;;;;;4.78;1.23;;;;;;;;;;5037211;28;20041;-53
2023/10/17 03:11:26;;;;;;;4.05;2.00;;;;;;;;;;5031345;28;20053;-54
2023/10/17 03:13:53;;;;;;;9.40;1.02;;;;;;;;;;5042473;28;20049;-54
2023/10/17 03:16:26;;;;;;;5.03;1.42;;;;;;;;;;5040568;28;20076;-53
2023/10/17 03:18:56;;;;;;;4.18;1.05;;;;;;;;;;5043857;28;20439;-51
2023/10/17 03:21:33;;;;;;;3.92;1.13;;;;;;;;;;5041229;28;20483;-52
2023/10/17 03:24:05;;;;;;;3.38;1.00;;;;;;;;;;5043519;28;20107;-53
2023/10/17 03:26:54;;;;;;;6.10;1.58;;;;;;;;;;5039948;28;20056;-54
2023/10/17 03:29:23;;;;;;;4.47;1.23;;;;;;;;;;5034301;28;20076;-53
2023/10/17 03:31:53;;;;;;;2.80;0.88;;;;;;;;;;5044876;28;20060;-53
2023/10/17 03:34:34;;;;;;;4.10;1.20;;;;;;;;;;5044992;28;20076;-53
2023/10/17 03:39:52;;;;;;;3.25;0.93;;;;;;;;;;5038337;28;20107;-52
2023/10/17 03:42:31;;;;;;;2.40;1.20;;;;;;;;;;5038359;28;20080;-54
2023/10/17 03:44:58;;;;;;;2.38;1.20;;;;;;;;;;5036225;28;20041;-51
2023/10/17 03:47:26;;;;;;;3.15;1.33;;;;;;;;;;5023317;28;20049;-51
2023/10/17 03:49:56;;;;;;;2.75;1.10;;;;;;;;;;5039905;28;20566;-52
2023/10/17 03:52:22;;;;;;;3.25;1.13;;;;;;;;;;5033678;28;20069;-53
2023/10/17 03:54:49;;;;;;;1.85;1.02;;;;;;;;;;5036538;28;20467;-53
2023/10/17 03:57:15;;;;;;;5.65;0.80;;;;;;;;;;5032548;28;20128;-52
2023/10/17 03:59:43;;;;;;;4.25;1.23;;;;;;;;;;5038733;28;20048;-54
2023/10/17 04:02:18;;;;;;;2.33;0.75;;;;;;;;;;5043280;28;20049;-54
2023/10/17 04:04:53;;;;;;;3.70;1.10;;;;;;;;;;5026034;28;20049;-52
2023/10/17 04:07:22;;;;;;;2.92;1.02;;;;;;;;;;5034766;28;20108;-53
2023/10/17 04:10:39;;;;;;;1.73;0.90;;;;;;;;;;5042406;28;20100;-54
2023/10/17 04:12:39;;;;;;;5.82;1.35;;;;;;;;;;5027536;28;20115;-54
2023/10/17 04:15:09;;;;;;;3.10;1.20;;;;;;;;;;5034016;28;20041;-54
2023/10/17 04:17:38;;;;;;;3.17;1.02;;;;;;;;;;5037931;28;20104;-54
2023/10/17 04:20:11;;;;;;;2.95;0.98;;;;;;;;;;5037967;28;20515;-54
2023/10/17 04:22:43;;;;;;;4.47;1.13;;;;;;;;;;5041812;28;20045;-54
2023/10/17 04:27:54;;;;;;;5.55;1.10;;;;;;;;;;5034768;28;20444;-54
2023/10/17 04:30:35;;;;;;;2.67;1.10;;;;;;;;;;5032061;28;20049;-54
2023/10/17 04:33:13;;;;;;;4.28;0.90;;;;;;;;;;5036868;28;20205;-51
2023/10/17 04:35:44;;;;;;;2.67;1.20;;;;;;;;;;5027881;28;20048;-54
2023/10/17 04:38:26;;;;;;;4.20;1.52;;;;;;;;;;5028967;28;20045;-54
2023/10/17 04:41:01;;;;;;;4.68;0.95;;;;;;;;;;5028086;28;20132;-54
2023/10/17 04:46:13;;;;;;;3.92;0.77;;;;;;;;;;5043536;28;21497;-54
2023/10/17 04:48:46;;;;;;;2.03;1.02;;;;;;;;;;5038003;28;20053;-55
2023/10/17 04:53:48;;;;;;;4.85;1.10;;;;;;;;;;5035233;28;20487;-54
2023/10/17 04:56:16;;;;;;;6.50;1.50;;;;;;;;;;5033955;28;20135;-54
2023/10/17 05:03:55;;;;;;;2.00;0.95;;;;;;;;;;5038260;28;20053;-53
2023/10/17 05:06:45;;;;;;;5.15;1.17;;;;;;;;;;5042779;28;20045;-53
2023/10/17 06:16:49;;;;;;;1.92;1.00;;;;;;;;;;5042885;28;20471;-53
2023/10/17 06:18:26;;;;;;;3.88;1.13;;;;;;;;;;5041175;28;20060;-54
2023/10/17 06:34:38;;;;;;;4.88;1.30;;;;;;;;;;5031943;28;20080;-55
2023/10/17 06:37:07;;;;;;;3.03;1.10;;;;;;;;;;5039860;28;20083;-55
2023/10/17 06:39:37;;;;;;;3.38;1.10;;;;;;;;;;5035848;28;20586;-53
2023/10/17 06:42:18;;;;;;;3.47;1.38;;;;;;;;;;5033135;28;20063;-53
2023/10/17 06:44:52;;;;;;;4.38;1.42;;;;;;;;;;5043962;28;20041;-54
2023/10/17 06:47:22;;;;;;;6.75;1.50;;;;;;;;;;5035337;28;21265;-54
2023/10/17 06:55:28;;;;;;;3.17;1.27;;;;;;;;;;5033370;28;20426;-52
2023/10/17 06:58:08;;;;;;;3.63;1.40;;;;;;;;;;5035045;28;20108;-54
2023/10/17 07:00:52;;;;;;;3.63;1.10;;;;;;;;;;5035096;28;20435;-53
2023/10/17 07:03:25;;;;;;;3.50;1.08;;;;;;;;;;5037489;28;20109;-51
2023/10/17 07:05:55;;;;;;;4.63;1.50;;;;;;;;;;5038539;28;20045;-54
2023/10/17 07:08:22;;;;;;;6.22;1.33;;;;;;;;;;5042466;28;20272;-54
2023/10/17 07:11:18;;;;;;;4.05;1.25;;;;;;;;;;5043995;28;20044;-54
2023/10/17 07:14:22;;;;;;;3.22;1.35;;;;;;;;;;5041123;28;20053;-54
2023/10/17 07:16:48;;;;;;;4.32;1.10;;;;;;;;;;5037652;28;20076;-54
2023/10/17 07:24:36;;;;;;;2.65;1.30;;;;;;;;;;5041445;28;20085;-54
2023/10/17 07:27:11;;;;;;;2.97;1.40;;;;;;;;;;5017459;28;20049;-52
2023/10/17 07:29:45;;;;;;;2.50;1.47;;;;;;;;;;5025932;28;20757;-53
2023/10/17 07:32:16;;;;;;;2.85;0.85;;;;;;;;;;5038211;28;20045;-53
2023/10/17 07:34:45;;;;;;;4.43;1.33;;;;;;;;;;5043585;28;20439;-55
2023/10/17 07:40:41;;;;;;;6.93;1.77;;;;;;;;;;5036687;28;20561;-55
2023/10/17 07:42:40;;;;;;;2.17;1.05;;;;;;;;;;5016437;28;20052;-51
2023/10/17 07:45:16;;;;;;;4.32;1.10;;;;;;;;;;5041124;28;20041;-52
2023/10/17 07:47:44;;;;;;;4.47;1.45;;;;;;;;;;5036018;28;20127;-51
2023/10/17 07:50:14;;;;;;;2.70;1.20;;;;;;;;;;5032955;28;20437;-53
2023/10/17 07:52:43;;;;;;;4.00;1.70;;;;;;;;;;5037560;28;20046;-54
2023/10/17 07:55:23;;;;;;;6.38;1.98;;;;;;;;;;5040888;28;20103;-54
2023/10/17 07:57:52;;;;;;;6.20;2.28;;;;;;;;;;5038457;28;20797;-53
2023/10/17 08:00:38;;;;;;;3.72;1.90;;;;;;;;;;5037830;28;20318;-54
2023/10/17 08:03:14;;;;;;;6.03;2.22;;;;;;;;;;5041410;28;20057;-55
2023/10/17 08:05:45;;;;;;;5.22;2.88;;;;;;;;;;5035522;28;20124;-54
2023/10/17 08:08:15;;;;;;;6.55;4.45;;;;;;;;;;5036199;28;20053;-55
2023/10/17 08:10:45;;;;;;;5.68;2.55;;;;;;;;;;5038761;28;20573;-55
2023/10/17 08:13:13;;;;;;;7.03;2.55;;;;;;;;;;5040157;28;20051;-54
2023/10/17 08:15:53;;;;;;;5.97;2.95;;;;;;;;;;5025815;28;20080;-53
2023/10/17 08:18:23;;;;;;;6.55;3.17;;;;;;;;;;5024214;28;20099;-54
2023/10/17 08:23:26;;;;;;;8.50;4.20;;;;;;;;;;5039361;28;20967;-56
2023/10/17 08:26:03;;;;;;;7.70;4.45;;;;;;;;;;5041931;28;21057;-54
2023/10/17 08:31:23;;;;;;;4.25;2.03;;;;;;;;;;5037562;28;20071;-56
2023/10/17 08:33:57;;;;;;;4.53;2.72;;;;;;;;;;5040910;28;20056;-54
2023/10/17 08:36:28;;;;;;;9.70;3.30;;;;;;;;;;5034898;28;20150;-55
2023/10/17 08:38:55;;;;;;;8.18;3.90;;;;;;;;;;5041960;28;20755;-56
2023/10/17 08:41:25;;;;;;;7.90;4.15;;;;;;;;;;5035223;28;20068;-55
2023/10/17 08:43:53;;;;;;;8.55;3.70;;;;;;;;;;5038109;28;20100;-55
2023/10/17 08:46:20;;;;;;;5.40;3.28;;;;;;;;;;5035171;28;20459;-54
2023/10/17 08:48:47;;;;;;;7.22;3.90;;;;;;;;;;5039150;28;20478;-54
2023/10/17 08:51:14;;;;;;;10.88;4.55;;;;;;;;;;5024532;28;20073;-55
2023/10/17 08:53:54;;;;;;;10.43;4.90;;;;;;;;;;5041656;28;20083;-56
2023/10/17 08:56:21;;;;;;;10.13;4.15;;;;;;;;;;5018543;28;20048;-55
2023/10/17 08:58:47;;;;;;;13.65;5.43;;;;;;;;;;5045657;28;20495;-54
2023/10/17 09:01:18;;;;;;;6.78;3.78;;;;;;;;;;5034139;28;20107;-55
2023/10/17 09:03:46;;;;;;;7.32;4.50;;;;;;;;;;5038164;28;20045;-53
2023/10/17 09:08:55;;;;;;;12.23;5.55;;;;;;;;;;5037730;28;20037;-55
2023/10/17 09:11:33;;;;;;;8.65;5.28;;;;;;;;;;5037683;28;20415;-53
2023/10/17 09:16:43;;;;;;;9.30;4.95;;;;;;;;;;5037638;28;20401;-53
2023/10/17 09:19:10;;;;;;;10.50;4.47;;;;;;;;;;5039954;28;20151;-54
2023/10/17 09:21:42;;;;;;;9.88;4.40;;;;;;;;;;5038353;28;20080;-55
2023/10/17 09:24:40;;;;;;;8.70;5.35;;;;;;;;;;5038978;28;20076;-54
2023/10/17 09:27:12;;;;;;;11.02;6.05;;;;;;;;;;5037469;28;20476;-54
2023/10/17 09:29:52;;;;;;;10.07;5.28;;;;;;;;;;5032955;28;20668;-54
2023/10/17 09:32:32;;;;;;;11.43;5.95;;;;;;;;;;5044133;28;20119;-54
2023/10/17 09:35:03;;;;;;;11.23;5.43;;;;;;;;;;5040479;28;20052;-53
2023/10/17 09:37:32;;;;;;;8.63;5.10;;;;;;;;;;5037885;28;21276;-54
2023/10/17 09:40:03;;;;;;;7.93;4.65;;;;;;;;;;5041193;28;20047;-54
2023/10/17 09:42:29;;;;;;;12.40;5.18;;;;;;;;;;5035961;28;20049;-54
2023/10/17 09:44:56;;;;;;;10.50;4.88;;;;;;;;;;5041709;28;20045;-53
2023/10/17 09:47:25;;;;;;;9.10;4.85;;;;;;;;;;5021554;28;20495;-55
2023/10/17 09:49:55;;;;;;;8.82;4.72;;;;;;;;;;5041553;28;20907;-54
2023/10/17 09:52:26;;;;;;;8.77;4.53;;;;;;;;;;5035146;28;20140;-54
2023/10/17 09:54:53;;;;;;;10.73;4.05;;;;;;;;;;5039222;28;20076;-54
2023/10/17 09:57:21;;;;;;;12.00;4.10;;;;;;;;;;5032745;28;20095;-55
2023/10/17 10:00:02;;;;;;;5.65;3.72;;;;;;;;;;5045143;28;20040;-53
2023/10/17 10:02:34;;;;;;;7.88;3.65;;;;;;;;;;5043036;28;20044;-53
2023/10/17 10:05:20;;;;;;;7.35;3.78;;;;;;;;;;5042438;28;20044;-53
2023/10/17 10:07:47;;;;;;;9.65;3.90;;;;;;;;;;5037059;28;20037;-54
2023/10/17 10:10:32;;;;;;;6.90;2.88;;;;;;;;;;5036502;28;20577;-51
2023/10/17 10:13:01;;;;;;;6.07;2.80;;;;;;;;;;5028760;28;20136;-49
2023/10/17 10:15:46;;;;;;;6.78;3.72;;;;;;;;;;5044911;28;20569;-51
2023/10/17 10:18:14;;;;;;;4.88;2.05;;;;;;;;;;5042081;28;20049;-52
2023/10/17 10:20:53;;;;;;;5.28;2.15;;;;;;;;;;5039409;28;20051;-51
2023/10/17 10:23:29;;;;;;;4.55;1.83;;;;;;;;;;5037009;28;20164;-52
2023/10/17 10:26:19;;;;;;;4.97;2.72;;;;;;;;;;5036001;28;20053;-50
2023/10/17 10:28:47;;;;;;;6.88;2.90;;;;;;;;;;5048010;28;20075;-54
2023/10/17 10:31:22;;;;;;;7.53;3.25;;;;;;;;;;5038316;28;20053;-52
2023/10/17 10:33:49;;;;;;;;;;;;;;;;;;5048568;28;20799;-52
2023/10/17 10:36:15;;;;;;;;;;;;;;;;;;5034722;28;20409;-52
2023/10/17 10:38:41;;;;;;;;;;;;;;;;;;5042797;28;19925;-54
2023/10/17 10:41:08;;;;;;;;;;;;;;;;;;5038544;28;19952;-56
2023/10/17 10:43:34;;;;;;;6.85;2.67;;;;;;;;;;5033542;28;19967;-53
2023/10/17 10:46:01;;;;;;;5.90;2.55;;;;;;;;;;5032926;28;20118;-52
2023/10/17 10:48:28;;;;;;;4.43;2.17;;;;;;;;;;5033733;28;20050;-54
2023/10/17 10:50:57;;;;;;;3.50;2.28;;;;;;;;;;5038452;28;20159;-54
2023/10/17 10:53:24;;;;;;;4.93;1.85;;;;;;;;;;5033479;28;20041;-54
2023/10/17 10:55:59;;;;;;;4.47;1.95;;;;;;;;;;5030147;28;20045;-52
2023/10/17 10:58:26;;;;;;;2.75;1.20;;;;;;;;;;5037311;28;20048;-53
2023/10/17 11:00:58;;;;;;;3.42;1.92;;;;;;;;;;5039414;28;20052;-55
2023/10/17 11:03:25;;;;;;;5.00;1.95;;;;;;;;;;5043296;28;20479;-54
2023/10/17 11:05:55;;;;;;;3.42;1.17;;;;;;;;;;5037446;28;20053;-54
2023/10/17 11:08:22;;;;;;;3.53;1.45;;;;;;;;;;5034691;28;20057;-53
2023/10/17 11:10:48;;;;;;;4.28;1.70;;;;;;;;;;5033203;28;20056;-53
2023/10/17 11:13:18;;;;;;;7.15;2.08;;;;;;;;;;5045230;28;20518;-52
2023/10/17 11:15:45;;;;;;;6.90;2.35;;;;;;;;;;5042286;28;20514;-51
2023/10/17 11:18:12;;;;;;;4.38;1.75;;;;;;;;;;5038392;28;20052;-54
2023/10/17 11:20:41;;;;;;;5.35;1.98;;;;;;;;;;5039225;28;20135;-50
2023/10/17 11:23:13;;;;;;;6.68;1.90;;;;;;;;;;5040825;28;20402;-56
2023/10/17 11:25:45;;;;;;;6.10;1.65;;;;;;;;;;5044303;28;20127;-55
2023/10/17 11:28:16;;;;;;;4.97;1.40;;;;;;;;;;5044591;28;20555;-52
2023/10/17 11:30:42;;;;;;;4.80;1.45;;;;;;;;;;5047440;28;20051;-54
2023/10/17 11:33:28;;;;;;;3.30;0.82;;;;;;;;;;5041065;28;20049;-58
2023/10/17 11:35:58;;;;;;;9.50;1.45;;;;;;;;;;5037012;28;20088;-56
2023/10/17 11:38:49;;;;;;;27.88;2.83;;;;;;;;;;5036190;28;20053;-54
2023/10/17 11:41:17;;;;;;;10.18;1.88;;;;;;;;;;5034267;28;20456;-54
2023/10/17 11:43:53;;;;;;;7.00;1.63;;;;;;;;;;5030019;28;20053;-55
2023/10/17 11:47:02;;;;;;;6.18;1.20;;;;;;;;;;5037176;28;20073;-56
2023/10/17 11:49:30;;;;;;;7.40;1.63;;;;;;;;;;5045413;28;20102;-60
2023/10/17 11:51:57;;;;;;;8.57;1.95;;;;;;;;;;5034024;28;20049;-55
2023/10/17 11:54:24;;;;;;;3.22;1.25;;;;;;;;;;5040202;28;20661;-55
2023/10/17 11:56:56;;;;;;;13.60;1.75;;;;;;;;;;5038156;28;20643;-55
2023/10/17 11:59:23;;;;;;;9.85;1.90;;;;;;;;;;5036161;28;20070;-54
2023/10/17 12:01:52;;;;;;;18.90;2.20;;;;;;;;;;5034910;28;20052;-55
2023/10/17 12:04:19;;;;;;;12.85;2.17;;;;;;;;;;5034620;28;20045;-55
2023/10/17 12:06:47;;;;;;;4.85;1.50;;;;;;;;;;5037084;28;20488;-52
2023/10/17 12:09:32;;;;;;;8.02;1.42;;;;;;;;;;5041245;28;20049;-54
2023/10/17 12:11:59;;;;;;;32.83;3.47;;;;;;;;;;5041134;28;20046;-55
2023/10/17 12:14:25;;;;;;;6.45;1.60;;;;;;;;;;5037908;28;20052;-53
2023/10/17 12:16:58;;;;;;;5.25;1.67;;;;;;;;;;5035834;28;20455;-52
2023/10/17 12:19:28;;;;;;;5.28;1.52;;;;;;;;;;5033809;28;20052;-54
2023/10/17 12:21:55;;;;;;;5.35;1.88;;;;;;;;;;5038572;28;20459;-53
2023/10/17 12:24:24;;;;;;;4.35;1.70;;;;;;;;;;5039040;28;20120;-54
2023/10/17 12:26:51;;;;;;;3.17;1.77;;;;;;;;;;5046485;28;20049;-53
2023/10/17 12:29:17;;;;;;;5.03;1.42;;;;;;;;;;5043387;28;20049;-53
2023/10/17 12:31:44;;;;;;;3.33;1.70;;;;;;;;;;5045155;28;20044;-52
2023/10/17 12:34:10;;;;;;;8.95;1.58;;;;;;;;;;5046518;28;20138;-51
2023/10/17 12:36:37;;;;;;;4.93;2.17;;;;;;;;;;5041685;28;20076;-53
2023/10/17 12:39:06;;;;;;;5.03;2.63;;;;;;;;;;5042346;28;20053;-50
2023/10/17 12:41:33;;;;;;;3.35;2.25;;;;;;;;;;5039359;28;20124;-53
2023/10/17 12:44:00;;;;;;;4.75;2.00;;;;;;;;;;5042167;28;20041;-54
2023/10/17 12:46:26;;;;;;;5.35;1.95;;;;;;;;;;5042301;28;20475;-53
2023/10/17 12:48:53;;;;;;;5.50;1.95;;;;;;;;;;5040334;28;20045;-50
2023/10/17 12:51:23;;;;;;;2.50;1.50;;;;;;;;;;5039594;28;20498;-50
2023/10/17 12:53:49;;;;;;;5.00;1.90;;;;;;;;;;5045294;28;20045;-54
2023/10/17 12:56:17;;;;;;;5.43;1.77;;;;;;;;;;5043247;28;20074;-53
2023/10/17 12:58:44;;;;;;;5.93;1.92;;;;;;;;;;5045100;28;20417;-53
2023/10/17 13:01:13;;;;;;;6.72;2.13;;;;;;;;;;5043036;28;20041;-53
2023/10/17 13:03:39;;;;;;;4.82;2.10;;;;;;;;;;5037590;28;20607;-55
2023/10/17 13:06:09;;;;;;;4.20;1.40;;;;;;;;;;5040114;28;20053;-55
2023/10/17 13:08:36;;;;;;;4.88;1.50;;;;;;;;;;5035799;28;20491;-55
2023/10/17 13:11:02;;;;;;;4.95;1.40;;;;;;;;;;5040095;28;20138;-54
2023/10/17 13:13:32;;;;;;;5.35;1.40;;;;;;;;;;5021333;28;21894;-55
2023/10/17 13:15:59;;;;;;;6.18;2.00;;;;;;;;;;5032407;28;20053;-52
2023/10/17 13:18:28;;;;;;;6.82;1.75;;;;;;;;;;5040134;28;20124;-53
2023/10/17 13:20:57;;;;;;;5.95;1.73;;;;;;;;;;5040485;28;20080;-51
2023/10/17 13:23:35;;;;;;;3.38;1.67;;;;;;;;;;5039068;28;20048;-53
2023/10/17 13:26:05;;;;;;;3.17;1.67;;;;;;;;;;5040021;28;20458;-54
2023/10/17 13:28:31;;;;;;;5.80;1.73;;;;;;;;;;5038185;28;20045;-54
2023/10/17 13:30:58;;;;;;;5.90;1.83;;;;;;;;;;5044960;28;20147;-51
2023/10/17 13:33:25;;;;;;;4.55;1.50;;;;;;;;;;5041465;28;20156;-57
2023/10/17 13:35:51;;;;;;;3.75;1.45;;;;;;;;;;5038177;28;20052;-53
2023/10/17 13:38:18;;;;;;;7.03;1.60;;;;;;;;;;5038371;28;20132;-55
2023/10/17 13:40:44;;;;;;;2.85;1.15;;;;;;;;;;5037322;28;20495;-55
2023/10/17 13:43:13;;;;;;;2.22;1.20;;;;;;;;;;5031700;28;20041;-55
2023/10/17 13:45:42;;;;;;;4.05;1.27;;;;;;;;;;5042174;28;20041;-54
2023/10/17 13:48:09;;;;;;;4.20;1.17;;;;;;;;;;5038569;28;20130;-54
2023/10/17 13:50:36;;;;;;;1.90;1.02;;;;;;;;;;5039560;28;20162;-55
2023/10/17 13:53:14;;;;;;;1.80;0.70;;;;;;;;;;5045317;28;20156;-55
2023/10/17 13:55:42;;;;;;;3.47;1.30;;;;;;;;;;5035758;28;20076;-55
2023/10/17 13:58:09;;;;;;;4.82;1.52;;;;;;;;;;5035138;28;20045;-54
2023/10/17 14:00:45;;;;;;;4.60;1.15;;;;;;;;;;5035303;28;20073;-54
2023/10/17 14:03:13;;;;;;;2.20;1.27;;;;;;;;;;5034972;28;20462;-54
2023/10/17 14:05:42;;;;;;;4.95;1.35;;;;;;;;;;5038292;28;20052;-53
2023/10/17 14:08:09;;;;;;;2.30;1.30;;;;;;;;;;5038798;28;20049;-55
2023/10/17 14:10:37;;;;;;;4.32;1.23;;;;;;;;;;5037108;28;20517;-54
2023/10/17 14:13:08;;;;;;;3.75;1.60;;;;;;;;;;5001429;28;1171553;-55
2023/10/17 14:15:35;;;;;;;5.68;1.60;;;;;;;;;;5044530;28;20507;-55
2023/10/17 14:18:09;;;;;;;3.20;1.38;;;;;;;;;;5042102;28;20506;-54
2023/10/17 14:20:39;;;;;;;3.53;1.55;;;;;;;;;;5041652;28;20053;-55
2023/10/17 14:23:08;;;;;;;5.55;1.23;;;;;;;;;;5044399;28;20041;-54
2023/10/17 14:28:21;;;;;;;3.13;1.30;;;;;;;;;;5036412;28;20135;-54
2023/10/17 14:30:48;;;;;;;2.05;1.00;;;;;;;;;;5021698;28;20577;-54
2023/10/17 14:33:15;;;;;;;3.13;1.15;;;;;;;;;;5039892;28;20127;-58
2023/10/17 14:35:44;;;;;;;5.30;1.10;;;;;;;;;;5045199;28;20072;-52
2023/10/17 14:38:11;;;;;;;4.90;1.42;;;;;;;;;;5038304;28;20510;-51
2023/10/17 14:40:38;;;;;;;2.08;1.30;;;;;;;;;;5036970;28;20089;-52
2023/10/17 14:43:08;;;;;;;3.47;1.17;;;;;;;;;;5044065;28;20049;-53
2023/10/17 14:45:41;;;;;;;4.10;1.65;;;;;;;;;;5042493;28;20048;-52
2023/10/17 14:48:11;;;;;;;5.15;1.70;;;;;;;;;;5046436;28;20044;-51
2023/10/17 14:50:38;;;;;;;4.97;1.13;;;;;;;;;;5036440;28;20045;-54
2023/10/17 14:53:05;;;;;;;5.03;1.98;;;;;;;;;;5041050;28;20073;-53
2023/10/17 14:55:33;;;;;;;2.85;1.30;;;;;;;;;;5040578;28;20123;-54
2023/10/17 14:58:01;;;;;;;2.78;1.33;;;;;;;;;;5041259;28;20041;-52
2023/10/17 15:00:28;;;;;;;3.58;1.45;;;;;;;;;;5041010;28;20125;-53
2023/10/17 15:02:55;;;;;;;4.07;1.30;;;;;;;;;;5036791;28;20049;-53
2023/10/17 15:05:22;;;;;;;1.98;1.00;;;;;;;;;;5034230;28;20079;-52
2023/10/17 15:07:51;;;;;;;2.80;1.17;;;;;;;;;;5034762;28;20048;-53
2023/10/17 15:10:17;;;;;;;3.53;1.63;;;;;;;;;;5039843;28;20073;-50
2023/10/17 15:12:45;;;;;;;5.10;1.60;;;;;;;;;;5036966;28;20825;-52
2023/10/17 15:15:13;;;;;;;3.35;1.23;;;;;;;;;;5037158;28;20052;-53
2023/10/17 15:17:43;;;;;;;2.22;1.15;;;;;;;;;;5034656;28;20427;-53
2023/10/17 15:20:11;;;;;;;1.50;1.00;;;;;;;;;;5037962;28;20067;-54
2023/10/17 15:22:41;;;;;;;2.65;1.10;;;;;;;;;;5041127;28;20139;-55
2023/10/17 15:25:12;;;;;;;2.95;1.25;;;;;;;;;;5037913;28;20077;-54
2023/10/17 15:27:40;;;;;;;2.67;1.02;;;;;;;;;;5037039;28;20049;-54
2023/10/17 15:30:08;;;;;;;7.20;0.95;;;;;;;;;;5036959;28;20130;-54
2023/10/17 15:32:44;;;;;;;6.10;1.00;;;;;;;;;;5035686;28;20072;-54
2023/10/17 15:35:13;;;;;;;3.08;1.15;;;;;;;;;;5033784;28;20045;-52
2023/10/17 15:37:46;;;;;;;9.20;2.10;;;;;;;;;;5037694;28;20415;-53
2023/10/17 15:40:17;;;;;;;3.50;1.20;;;;;;;;;;5031752;28;20103;-51
2023/10/17 15:42:46;;;;;;;5.78;1.10;;;;;;;;;;5041111;28;20484;-52
2023/10/17 15:45:15;;;;;;;3.45;1.40;;;;;;;;;;5038052;28;20128;-53
2023/10/17 15:47:45;;;;;;;7.00;1.58;;;;;;;;;;5036308;28;20048;-53
2023/10/17 15:50:18;;;;;;;3.88;1.35;;;;;;;;;;5038008;28;20414;-50
2023/10/17 15:52:45;;;;;;;5.00;1.40;;;;;;;;;;5040261;28;20615;-54
2023/10/17 15:55:12;;;;;;;4.00;1.48;;;;;;;;;;5039602;28;20041;-53
2023/10/17 15:57:41;;;;;;;4.32;1.33;;;;;;;;;;5040436;28;20055;-51
2023/10/17 16:00:15;;;;;;;5.88;1.40;;;;;;;;;;5042655;28;20052;-54
2023/10/17 16:02:44;;;;;;;5.03;1.10;;;;;;;;;;5034674;28;20053;-53
2023/10/17 16:05:11;;;;;;;5.38;1.40;;;;;;;;;;5037295;28;20060;-51
2023/10/17 16:07:39;;;;;;;2.70;0.98;;;;;;;;;;5037045;28;20115;-50
2023/10/17 16:10:07;;;;;;;6.72;1.27;;;;;;;;;;5034577;28;20057;-53
2023/10/17 16:12:33;;;;;;;5.10;1.25;;;;;;;;;;5025827;28;20041;-52
2023/10/17 16:15:03;;;;;;;4.93;1.38;;;;;;;;;;5040844;28;20041;-53
2023/10/17 16:17:29;;;;;;;3.83;1.30;;;;;;;;;;5034205;28;20419;-54
2023/10/17 16:19:55;;;;;;;4.95;1.13;;;;;;;;;;5038424;28;20063;-54
2023/10/17 16:22:22;;;;;;;3.45;1.15;;;;;;;;;;5045415;28;21396;-54
2023/10/17 16:24:48;;;;;;;4.55;1.30;;;;;;;;;;5035285;28;20256;-52
2023/10/17 16:27:15;;;;;;;4.50;1.13;;;;;;;;;;5036487;28;20046;-53
2023/10/17 16:29:42;;;;;;;5.30;1.38;;;;;;;;;;5040387;28;20112;-53
2023/10/17 16:32:09;;;;;;;4.38;1.13;;;;;;;;;;5030222;28;20116;-53
2023/10/17 16:34:35;;;;;;;2.75;0.95;;;;;;;;;;5043194;28;20104;-53
2023/10/17 16:37:02;;;;;;;3.30;1.00;;;;;;;;;;5036595;28;20072;-54
2023/10/17 16:39:30;;;;;;;3.47;1.08;;;;;;;;;;5033974;28;20060;-49
2023/10/17 16:41:57;;;;;;;4.95;1.48;;;;;;;;;;5043908;28;20087;-50
2023/10/17 16:44:23;;;;;;;7.20;1.45;;;;;;;;;;5036243;28;20128;-49
2023/10/17 16:46:50;;;;;;;3.22;1.20;;;;;;;;;;5046545;28;20128;-52
2023/10/17 16:49:16;;;;;;;6.72;1.58;;;;;;;;;;5036933;28;20403;-52
2023/10/17 16:51:43;;;;;;;3.67;1.10;;;;;;;;;;5047369;28;20049;-54
2023/10/17 16:54:10;;;;;;;3.08;1.00;;;;;;;;;;5038540;28;20132;-50
2023/10/17 16:56:36;;;;;;;5.95;1.60;;;;;;;;;;5040661;28;20392;-54
2023/10/17 16:59:04;;;;;;;3.72;2.08;;;;;;;;;;5035348;28;20045;-53
2023/10/17 17:01:31;;;;;;;4.78;1.27;;;;;;;;;;5041686;28;20131;-52
2023/10/17 17:03:58;;;;;;;3.63;1.13;;;;;;;;;;5045602;28;22459;-54
2023/10/17 17:06:24;;;;;;;3.72;1.45;;;;;;;;;;5041521;28;20156;-50
2023/10/17 17:08:56;;;;;;;3.28;1.00;;;;;;;;;;5041472;28;20602;-52
2023/10/17 17:11:23;;;;;;;4.55;1.20;;;;;;;;;;5041035;28;20049;-52